createdAt,value
2022-10-09T00:01:10.537Z,10.27
2022-10-09T00:03:39.373Z,10.54
2022-10-09T00:06:07.204Z,10.68
2022-10-09T00:08:39.469Z,10.79
2022-10-09T00:11:08.137Z,10.97
2022-10-09T00:13:35.678Z,11.00
2022-10-09T00:16:04.651Z,11.08
2022-10-09T00:18:31.367Z,11.14
2022-10-09T00:20:57.983Z,11.03
2022-10-09T00:23:24.673Z,10.96
2022-10-09T00:25:57.041Z,10.86
2022-10-09T00:28:26.144Z,10.17
2022-10-09T00:30:53.713Z,10.49
2022-10-09T00:33:21.202Z,10.43
2022-10-09T00:35:48.451Z,9.90
2022-10-09T00:38:15.278Z,10.12
2022-10-09T00:40:42.136Z,10.02
2022-10-09T00:43:17.962Z,10.45
2022-10-09T00:45:50.092Z,10.57
2022-10-09T00:48:18.652Z,10.46
2022-10-09T00:50:57.997Z,10.72
2022-10-09T00:53:28.923Z,10.68
2022-10-09T00:55:56.063Z,10.18
2022-10-09T00:58:24.386Z,10.16
2022-10-09T01:00:51.244Z,9.91
2022-10-09T01:03:18.012Z,9.78
2022-10-09T01:06:16.972Z,9.67
2022-10-09T01:08:52.408Z,9.63
2022-10-09T01:11:31.555Z,9.66
2022-10-09T01:14:09.316Z,9.89
2022-10-09T01:17:06.730Z,10.22
2022-10-09T01:20:10.971Z,9.97
2022-10-09T01:22:56.564Z,9.69
2022-10-09T01:25:35.446Z,9.77
2022-10-09T01:28:06.162Z,9.72
2022-10-09T01:30:35.260Z,9.93
2022-10-09T01:33:03.338Z,9.81
2022-10-09T01:35:31.056Z,9.99
2022-10-09T01:37:59.820Z,10.11
2022-10-09T01:40:28.518Z,9.98
2022-10-09T01:42:56.216Z,10.04
2022-10-09T01:45:23.006Z,9.92
2022-10-09T01:47:49.870Z,10.30
2022-10-09T01:50:25.137Z,10.44
2022-10-09T01:53:00.840Z,10.10
2022-10-09T01:55:27.476Z,10.11
2022-10-09T01:58:01.692Z,10.15
2022-10-09T02:00:33.188Z,10.46
2022-10-09T02:03:02.044Z,10.64
2022-10-09T02:05:31.003Z,10.43
2022-10-09T02:07:59.498Z,10.47
2022-10-09T02:10:26.962Z,10.75
2022-10-09T02:12:57.658Z,10.79
2022-10-09T02:15:34.811Z,10.53
2022-10-09T02:18:08.273Z,10.47
2022-10-09T02:20:39.496Z,10.23
2022-10-09T02:23:08.086Z,10.18
2022-10-09T02:25:35.551Z,10.18
2022-10-09T02:28:03.474Z,10.11
2022-10-09T02:30:43.969Z,10.54
2022-10-09T02:33:10.616Z,10.81
2022-10-09T02:35:38.442Z,10.93
2022-10-09T02:38:05.049Z,11.02
2022-10-09T02:40:31.688Z,10.99
2022-10-09T02:42:58.605Z,10.93
2022-10-09T02:45:25.247Z,11.27
2022-10-09T02:47:51.872Z,11.30
2022-10-09T02:50:18.484Z,11.22
2022-10-09T02:52:45.069Z,11.31
2022-10-09T02:55:11.740Z,11.32
2022-10-09T02:57:38.325Z,11.37
2022-10-09T03:00:05.784Z,11.40
2022-10-09T03:02:32.472Z,11.27
2022-10-09T03:04:59.188Z,11.18
2022-10-09T03:07:25.865Z,11.30
2022-10-09T03:09:53.047Z,11.21
2022-10-09T03:12:22.109Z,11.08
2022-10-09T03:14:48.720Z,10.61
2022-10-09T03:17:15.502Z,11.17
2022-10-09T03:19:42.120Z,11.26
2022-10-09T03:22:08.721Z,11.31
2022-10-09T03:24:35.352Z,11.28
2022-10-09T03:27:01.987Z,11.27
2022-10-09T03:29:28.591Z,11.09
2022-10-09T03:31:55.351Z,11.31
2022-10-09T03:34:22.072Z,11.53
2022-10-09T03:36:48.795Z,11.46
2022-10-09T03:39:15.424Z,11.45
2022-10-09T03:41:42.059Z,11.29
2022-10-09T03:44:08.702Z,11.41
2022-10-09T03:46:35.379Z,11.26
2022-10-09T03:49:02.024Z,11.36
2022-10-09T03:51:28.734Z,11.26
2022-10-09T03:53:55.421Z,11.42
2022-10-09T03:56:22.016Z,11.60
2022-10-09T03:58:48.609Z,11.73
2022-10-09T04:01:15.494Z,11.79
2022-10-09T04:03:42.140Z,11.55
2022-10-09T04:06:08.746Z,11.83
2022-10-09T04:08:36.048Z,11.84
2022-10-09T04:11:03.571Z,11.83
2022-10-09T04:13:30.211Z,11.35
2022-10-09T04:15:57.067Z,11.38
2022-10-09T04:18:24.860Z,11.72
2022-10-09T04:20:54.605Z,11.89
2022-10-09T04:23:24.161Z,11.79
2022-10-09T04:25:59.549Z,11.65
2022-10-09T04:28:27.596Z,11.39
2022-10-09T04:30:54.288Z,11.27
2022-10-09T04:33:21.037Z,11.66
2022-10-09T04:35:51.570Z,11.66
2022-10-09T04:38:18.695Z,11.76
2022-10-09T04:40:45.548Z,11.70
2022-10-09T04:43:12.194Z,11.88
2022-10-09T04:45:41.868Z,11.92
2022-10-09T04:48:08.523Z,12.02
2022-10-09T04:50:38.927Z,12.00
2022-10-09T04:53:05.554Z,11.70
2022-10-09T04:55:32.164Z,11.58
2022-10-09T04:57:58.861Z,11.72
2022-10-09T05:00:25.477Z,11.88
2022-10-09T05:02:52.301Z,11.89
2022-10-09T05:05:19.146Z,12.00
2022-10-09T05:07:45.784Z,11.92
2022-10-09T05:10:12.388Z,12.03
2022-10-09T05:12:39.102Z,11.98
2022-10-09T05:15:06.344Z,12.08
2022-10-09T05:17:33.026Z,11.67
2022-10-09T05:19:59.762Z,11.98
2022-10-09T05:22:26.343Z,12.16
2022-10-09T05:24:52.935Z,12.20
2022-10-09T05:27:19.576Z,12.21
2022-10-09T05:29:46.203Z,12.09
2022-10-09T05:32:12.919Z,12.39
2022-10-09T05:34:39.624Z,12.58
2022-10-09T05:37:06.496Z,12.62
2022-10-09T05:39:35.835Z,12.38
2022-10-09T05:42:02.538Z,12.58
2022-10-09T05:44:29.151Z,12.54
2022-10-09T05:46:55.777Z,12.36
2022-10-09T05:49:22.813Z,12.00
2022-10-09T05:51:50.018Z,12.39
2022-10-09T05:54:18.185Z,12.54
2022-10-09T05:56:45.546Z,12.37
2022-10-09T05:59:15.219Z,12.48
2022-10-09T06:01:44.715Z,12.55
2022-10-09T06:04:17.020Z,12.61
2022-10-09T06:06:44.830Z,12.45
2022-10-09T06:09:11.813Z,12.76
2022-10-09T06:11:39.958Z,12.78
2022-10-09T06:14:09.288Z,13.12
2022-10-09T06:16:38.336Z,13.18
2022-10-09T06:19:06.586Z,13.30
2022-10-09T06:21:33.707Z,13.36
2022-10-09T06:24:02.148Z,13.51
2022-10-09T06:26:30.140Z,13.49
2022-10-09T06:28:58.824Z,13.46
2022-10-09T06:31:27.922Z,13.36
2022-10-09T06:33:55.084Z,13.43
2022-10-09T06:36:28.431Z,13.47
2022-10-09T06:38:56.214Z,13.45
2022-10-09T06:41:27.304Z,13.34
2022-10-09T06:44:06.359Z,13.32
2022-10-09T06:46:36.322Z,13.30
2022-10-09T06:49:04.411Z,13.19
2022-10-09T06:51:33.207Z,13.18
2022-10-09T06:54:01.343Z,13.03
2022-10-09T06:56:30.091Z,13.07
2022-10-09T06:59:00.180Z,13.13
2022-10-09T07:01:30.811Z,13.07
2022-10-09T07:04:02.394Z,13.25
2022-10-09T07:06:31.662Z,13.37
2022-10-09T07:09:00.899Z,13.18
2022-10-09T07:11:30.563Z,13.53
2022-10-09T07:13:59.627Z,13.61
2022-10-09T07:16:35.608Z,13.74
2022-10-09T07:19:06.448Z,13.84
2022-10-09T07:21:36.187Z,13.92
2022-10-09T07:24:04.421Z,13.91
2022-10-09T07:26:34.547Z,14.18
2022-10-09T07:29:01.465Z,14.19
2022-10-09T07:31:28.289Z,14.42
2022-10-09T07:33:56.618Z,14.47
2022-10-09T07:36:23.627Z,14.85
2022-10-09T07:38:53.056Z,14.94
2022-10-09T07:41:21.154Z,15.08
2022-10-09T07:43:48.100Z,15.38
2022-10-09T07:46:16.924Z,15.35
2022-10-09T07:48:44.034Z,15.52
2022-10-09T07:51:23.248Z,15.75
2022-10-09T07:53:50.671Z,15.93
2022-10-09T07:56:20.138Z,15.49
2022-10-09T07:58:51.672Z,16.00
2022-10-09T08:01:20.557Z,16.31
2022-10-09T08:03:48.154Z,16.60
2022-10-09T08:06:15.308Z,16.63
2022-10-09T08:08:42.016Z,16.74
2022-10-09T08:11:14.436Z,16.92
2022-10-09T08:13:42.129Z,16.97
2022-10-09T08:16:09.563Z,17.11
2022-10-09T08:18:36.838Z,16.99
2022-10-09T08:21:09.353Z,17.03
2022-10-09T08:23:35.996Z,17.09
2022-10-09T08:26:03.505Z,16.94
2022-10-09T08:28:30.722Z,17.20
2022-10-09T08:30:57.444Z,17.16
2022-10-09T08:33:25.902Z,17.21
2022-10-09T08:35:53.440Z,17.31
2022-10-09T08:38:45.030Z,17.05
2022-10-09T08:41:18.168Z,17.15
2022-10-09T08:43:48.046Z,17.30
2022-10-09T08:46:22.672Z,17.47
2022-10-09T08:48:51.698Z,17.75
2022-10-09T08:51:26.733Z,17.82
2022-10-09T08:54:01.796Z,18.13
2022-10-09T08:56:30.110Z,18.26
2022-10-09T08:58:57.094Z,18.53
2022-10-09T09:01:39.800Z,18.44
2022-10-09T09:04:31.220Z,18.37
2022-10-09T09:07:19.298Z,18.68
2022-10-09T09:09:59.464Z,18.80
2022-10-09T09:13:11.760Z,18.76
2022-10-09T09:15:55.718Z,18.76
2022-10-09T09:18:42.880Z,18.92
2022-10-09T09:21:27.851Z,19.09
2022-10-09T09:23:55.388Z,19.24
2022-10-09T09:26:23.305Z,19.26
2022-10-09T09:28:55.679Z,19.29
2022-10-09T09:31:30.466Z,19.40
2022-10-09T09:34:03.516Z,18.98
2022-10-09T09:36:42.568Z,19.41
2022-10-09T09:42:09.787Z,19.27
2022-10-09T09:44:41.763Z,19.18
2022-10-09T09:47:21.583Z,19.13
2022-10-09T09:50:00.040Z,19.13
2022-10-09T09:52:30.000Z,19.08
2022-10-09T09:54:58.553Z,19.22
2022-10-09T09:57:35.733Z,19.09
2022-10-09T10:00:16.121Z,19.33
2022-10-09T10:02:42.805Z,19.19
2022-10-09T10:05:27.504Z,19.36
2022-10-09T10:07:54.680Z,19.55
2022-10-09T10:10:26.711Z,19.74
2022-10-09T10:12:57.321Z,19.87
2022-10-09T10:15:32.580Z,19.83
2022-10-09T10:18:12.889Z,20.08
2022-10-09T10:20:49.486Z,19.83
2022-10-09T10:23:21.673Z,19.91
2022-10-09T10:25:48.988Z,19.85
2022-10-09T10:28:20.736Z,19.98
2022-10-09T10:30:49.853Z,19.92
2022-10-09T10:33:25.081Z,20.26
2022-10-09T10:35:53.947Z,20.41
2022-10-09T10:38:31.483Z,20.10
2022-10-09T10:41:08.655Z,20.10
2022-10-09T10:43:44.791Z,20.26
2022-10-09T10:46:36.934Z,20.43
2022-10-09T10:49:03.749Z,20.31
2022-10-09T10:51:42.813Z,20.50
2022-10-09T10:54:18.312Z,20.52
2022-10-09T10:57:05.963Z,20.30
2022-10-09T10:59:40.989Z,20.42
2022-10-09T11:02:11.071Z,20.52
2022-10-09T11:04:59.441Z,20.70
2022-10-09T11:07:47.268Z,20.92
2022-10-09T11:10:39.456Z,20.59
2022-10-09T11:13:24.222Z,21.09
2022-10-09T11:16:05.969Z,21.21
2022-10-09T11:18:58.882Z,21.02
2022-10-09T11:21:47.103Z,20.53
2022-10-09T11:24:32.476Z,20.33
2022-10-09T11:27:17.855Z,19.99
2022-10-09T11:29:56.063Z,20.11
2022-10-09T11:32:32.518Z,20.21
2022-10-09T11:35:08.214Z,20.23
2022-10-09T11:37:39.264Z,20.38
2022-10-09T11:40:18.440Z,20.49
2022-10-09T11:42:53.200Z,20.64
2022-10-09T11:45:48.735Z,20.64
2022-10-09T11:48:21.213Z,21.25
2022-10-09T11:51:08.989Z,20.82
2022-10-09T11:53:38.549Z,21.09
2022-10-09T11:56:06.613Z,20.86
2022-10-09T11:58:33.643Z,20.64
2022-10-09T12:01:23.241Z,20.33
2022-10-09T12:04:06.028Z,20.22
2022-10-09T12:06:45.024Z,20.11
2022-10-09T12:09:23.221Z,20.26
2022-10-09T12:12:01.717Z,20.17
2022-10-09T12:14:30.362Z,20.36
2022-10-09T12:16:58.956Z,20.09
2022-10-09T12:19:34.834Z,20.45
2022-10-09T12:22:04.538Z,20.73
2022-10-09T12:24:40.465Z,20.84
2022-10-09T12:27:08.024Z,21.05
2022-10-09T12:29:47.246Z,20.57
2022-10-09T12:32:49.548Z,20.67
2022-10-09T12:35:25.215Z,20.46
2022-10-09T12:37:52.083Z,19.96
2022-10-09T12:40:24.424Z,19.96
2022-10-09T12:42:53.685Z,20.04
2022-10-09T12:45:24.615Z,20.43
2022-10-09T12:47:53.291Z,20.42
2022-10-09T12:50:24.990Z,19.87
2022-10-09T12:52:59.727Z,19.85
2022-10-09T12:55:35.511Z,20.36
2022-10-09T12:58:23.630Z,20.30
2022-10-09T13:00:57.712Z,19.94
2022-10-09T13:03:53.350Z,20.21
2022-10-09T13:06:22.745Z,20.32
2022-10-09T13:09:02.568Z,20.29
2022-10-09T13:11:34.132Z,20.27
2022-10-09T13:14:01.583Z,20.24
2022-10-09T13:16:43.030Z,20.26
2022-10-09T13:19:33.275Z,20.76
2022-10-09T13:22:39.317Z,20.43
2022-10-09T13:25:06.623Z,20.75
2022-10-09T13:27:38.556Z,20.61
2022-10-09T13:30:06.952Z,20.67
2022-10-09T13:32:33.576Z,20.92
2022-10-09T13:35:00.267Z,20.65
2022-10-09T13:37:27.731Z,20.38
2022-10-09T13:39:57.054Z,20.09
2022-10-09T13:42:27.449Z,19.84
2022-10-09T13:44:54.389Z,19.44
2022-10-09T13:47:24.436Z,19.50
2022-10-09T13:49:51.627Z,19.57
2022-10-09T13:52:18.369Z,19.14
2022-10-09T13:54:45.044Z,19.53
2022-10-09T13:57:11.952Z,19.68
2022-10-09T13:59:38.734Z,19.88
2022-10-09T14:02:05.773Z,20.44
2022-10-09T14:04:32.436Z,20.32
2022-10-09T14:06:59.040Z,20.07
2022-10-09T14:09:25.881Z,19.85
2022-10-09T14:11:52.576Z,19.51
2022-10-09T14:14:19.676Z,18.69
2022-10-09T14:16:46.481Z,19.32
2022-10-09T14:19:13.445Z,18.77
2022-10-09T14:21:40.314Z,19.04
2022-10-09T14:24:07.366Z,19.11
2022-10-09T14:26:34.612Z,18.97
2022-10-09T14:29:02.992Z,18.70
2022-10-09T14:31:30.225Z,18.32
2022-10-09T14:33:59.605Z,18.35
2022-10-09T14:36:26.820Z,18.66
2022-10-09T14:38:53.858Z,18.68
2022-10-09T14:41:21.294Z,18.35
2022-10-09T14:43:49.017Z,18.79
2022-10-09T14:46:17.899Z,18.71
2022-10-09T14:48:46.385Z,18.68
2022-10-09T14:51:19.533Z,18.76
2022-10-09T14:53:47.174Z,18.64
2022-10-09T14:56:16.538Z,18.69
2022-10-09T14:58:43.382Z,18.52
2022-10-09T15:01:18.260Z,18.51
2022-10-09T15:03:46.011Z,18.47
2022-10-09T15:06:13.718Z,18.48
2022-10-09T15:08:42.407Z,18.44
2022-10-09T15:11:10.904Z,18.06
2022-10-09T15:13:38.983Z,18.29
2022-10-09T15:16:13.684Z,18.22
2022-10-09T15:18:41.067Z,18.12
2022-10-09T15:21:17.287Z,18.03
2022-10-09T15:23:44.548Z,17.81
2022-10-09T15:26:11.374Z,17.71
2022-10-09T15:28:39.268Z,17.69
2022-10-09T15:31:07.685Z,17.62
2022-10-09T15:33:34.642Z,17.51
2022-10-09T15:36:04.024Z,17.40
2022-10-09T15:38:30.815Z,17.15
2022-10-09T15:40:57.494Z,17.26
2022-10-09T15:43:26.074Z,17.19
2022-10-09T15:45:56.006Z,17.07
2022-10-09T15:48:24.511Z,16.93
2022-10-09T15:50:53.589Z,16.75
2022-10-09T15:53:22.908Z,16.51
2022-10-09T15:55:52.191Z,16.72
2022-10-09T15:58:19.171Z,16.41
2022-10-09T16:00:48.429Z,16.34
2022-10-09T16:03:17.108Z,15.96
2022-10-09T16:05:48.502Z,15.97
2022-10-09T16:08:16.413Z,15.74
2022-10-09T16:10:49.444Z,14.99
2022-10-09T16:13:16.973Z,15.27
2022-10-09T16:15:47.216Z,15.13
2022-10-09T16:18:16.595Z,15.12
2022-10-09T16:20:43.619Z,14.58
2022-10-09T16:23:11.561Z,14.79
2022-10-09T16:25:39.762Z,14.69
2022-10-09T16:28:08.894Z,14.31
2022-10-09T16:30:40.521Z,14.57
2022-10-09T16:33:12.257Z,14.51
2022-10-09T16:35:39.429Z,14.34
2022-10-09T16:38:06.344Z,14.18
2022-10-09T16:40:57.476Z,14.01
2022-10-09T16:43:20.197Z,13.10
2022-10-09T16:45:47.160Z,13.05
2022-10-09T16:48:13.930Z,13.89
2022-10-09T16:50:41.977Z,13.45
2022-10-09T16:53:08.726Z,13.74
2022-10-09T16:55:35.924Z,13.62
2022-10-09T16:58:02.655Z,13.58
2022-10-09T17:00:29.413Z,13.10
2022-10-09T17:02:56.861Z,13.68
2022-10-09T17:05:25.600Z,13.76
2022-10-09T17:07:52.635Z,14.11
2022-10-09T17:10:19.694Z,14.20
2022-10-09T17:12:46.397Z,14.25
2022-10-09T17:15:13.577Z,14.04
2022-10-09T17:17:40.990Z,14.52
2022-10-09T17:20:08.529Z,14.53
2022-10-09T17:22:35.154Z,14.47
2022-10-09T17:25:02.235Z,14.43
2022-10-09T17:27:28.854Z,14.46
2022-10-09T17:29:55.443Z,14.45
2022-10-09T17:32:22.702Z,14.02
2022-10-09T17:34:50.937Z,14.44
2022-10-09T17:37:17.577Z,14.46
2022-10-09T17:39:48.498Z,14.46
2022-10-09T17:42:17.847Z,14.47
2022-10-09T17:44:44.433Z,14.36
2022-10-09T17:47:11.077Z,14.51
2022-10-09T17:49:38.064Z,14.35
2022-10-09T17:52:04.689Z,14.28
2022-10-09T17:54:31.357Z,14.33
2022-10-09T17:57:00.281Z,14.40
2022-10-09T17:59:27.265Z,14.22
2022-10-09T18:01:53.898Z,14.33
2022-10-09T18:04:20.570Z,14.10
2022-10-09T18:06:47.276Z,14.18
2022-10-09T18:09:13.908Z,14.16
2022-10-09T18:11:40.625Z,14.11
2022-10-09T18:14:07.480Z,13.96
2022-10-09T18:16:37.804Z,13.98
2022-10-09T18:19:13.822Z,13.91
2022-10-09T18:21:42.734Z,13.32
2022-10-09T18:24:09.907Z,13.72
2022-10-09T18:26:36.668Z,13.01
2022-10-09T18:29:04.044Z,13.63
2022-10-09T18:31:31.174Z,13.54
2022-10-09T18:34:00.961Z,13.45
2022-10-09T18:36:31.536Z,13.56
2022-10-09T18:39:09.916Z,13.38
2022-10-09T18:41:37.510Z,13.39
2022-10-09T18:44:04.812Z,13.31
2022-10-09T18:46:37.969Z,13.33
2022-10-09T18:49:09.472Z,13.33
2022-10-09T18:51:37.905Z,13.25
2022-10-09T18:54:06.778Z,13.28
2022-10-09T18:56:34.851Z,13.23
2022-10-09T18:59:05.298Z,13.04
2022-10-09T19:01:32.181Z,13.06
2022-10-09T19:03:58.949Z,12.99
2022-10-09T19:06:25.808Z,12.99
2022-10-09T19:08:53.425Z,12.89
2022-10-09T19:11:20.071Z,12.85
2022-10-09T19:13:47.990Z,12.84
2022-10-09T19:16:14.649Z,12.74
2022-10-09T19:18:41.269Z,12.73
2022-10-09T19:21:14.147Z,12.82
2022-10-09T19:23:41.721Z,12.56
2022-10-09T19:26:08.368Z,12.59
2022-10-09T19:28:37.857Z,12.50
2022-10-09T19:31:06.074Z,12.39
2022-10-09T19:33:33.028Z,12.21
2022-10-09T19:35:59.775Z,12.38
2022-10-09T19:38:28.226Z,12.27
2022-10-09T19:40:54.891Z,12.05
2022-10-09T19:43:23.698Z,12.19
2022-10-09T19:46:01.092Z,12.10
2022-10-09T19:48:27.780Z,12.24
2022-10-09T19:50:54.438Z,12.07
2022-10-09T19:53:21.037Z,11.96
2022-10-09T19:55:47.716Z,11.95
2022-10-09T19:58:16.255Z,11.79
2022-10-09T20:00:43.937Z,12.11
2022-10-09T20:03:10.600Z,11.93
2022-10-09T20:05:37.382Z,11.95
2022-10-09T20:08:04.298Z,12.08
2022-10-09T20:10:31.042Z,11.51
2022-10-09T20:12:57.766Z,12.07
2022-10-09T20:15:24.517Z,11.99
2022-10-09T20:17:51.154Z,11.92
2022-10-09T20:20:17.949Z,11.88
2022-10-09T20:22:44.586Z,11.85
2022-10-09T20:25:11.217Z,11.22
2022-10-09T20:27:38.350Z,11.61
2022-10-09T20:30:05.419Z,11.55
2022-10-09T20:32:36.385Z,11.46
2022-10-09T20:35:05.377Z,11.47
2022-10-09T20:37:32.038Z,11.45
2022-10-09T20:39:58.753Z,11.58
2022-10-09T20:42:25.622Z,11.69
2022-10-09T20:44:52.270Z,11.47
2022-10-09T20:47:18.917Z,11.53
2022-10-09T20:49:45.513Z,11.60
2022-10-09T20:52:12.147Z,11.55
2022-10-09T20:54:38.792Z,11.57
2022-10-09T20:57:05.428Z,11.62
2022-10-09T20:59:32.015Z,11.63
2022-10-09T21:01:58.693Z,11.70
2022-10-09T21:04:25.399Z,11.44
2022-10-09T21:06:52.017Z,11.64
2022-10-09T21:09:18.891Z,11.68
2022-10-09T21:11:45.883Z,11.32
2022-10-09T21:14:12.788Z,11.61
2022-10-09T21:16:39.784Z,11.43
2022-10-09T21:19:06.494Z,11.39
2022-10-09T21:21:33.345Z,11.46
2022-10-09T21:24:00.855Z,11.31
2022-10-09T21:26:29.299Z,11.23
2022-10-09T21:28:59.666Z,11.07
2022-10-09T21:31:28.991Z,10.70
2022-10-09T21:33:56.372Z,10.57
2022-10-09T21:36:31.276Z,10.35
2022-10-09T21:38:58.169Z,10.65
2022-10-09T21:41:25.076Z,10.57
2022-10-09T21:43:52.027Z,10.34
2022-10-09T21:46:18.707Z,10.29
2022-10-09T21:48:45.351Z,10.18
2022-10-09T21:51:11.977Z,9.98
2022-10-09T21:53:38.663Z,9.97
2022-10-09T21:56:06.318Z,10.08
2022-10-09T21:58:33.271Z,10.02
2022-10-09T22:01:01.917Z,10.00
2022-10-09T22:03:31.313Z,9.78
2022-10-09T22:05:58.401Z,9.79
2022-10-09T22:08:25.666Z,9.85
2022-10-09T22:10:52.535Z,9.71
2022-10-09T22:13:21.167Z,9.72
2022-10-09T22:15:51.127Z,9.75
2022-10-09T22:18:18.782Z,9.81
2022-10-09T22:20:49.038Z,9.64
2022-10-09T22:23:20.176Z,9.22
2022-10-09T22:26:05.400Z,9.49
2022-10-09T22:28:32.499Z,9.55
2022-10-09T22:31:15.618Z,9.40
2022-10-09T22:33:42.888Z,9.51
2022-10-09T22:36:16.291Z,9.35
2022-10-09T22:38:44.075Z,9.41
2022-10-09T22:41:19.694Z,9.16
2022-10-09T22:43:49.257Z,9.27
2022-10-09T22:46:21.943Z,9.38
2022-10-09T22:48:48.868Z,9.12
2022-10-09T22:51:17.800Z,9.28
2022-10-09T22:53:45.494Z,9.10
2022-10-09T22:56:16.296Z,9.09
2022-10-09T22:58:44.505Z,9.10
2022-10-09T23:01:25.281Z,9.03
2022-10-09T23:03:52.013Z,9.07
2022-10-09T23:06:19.970Z,8.97
2022-10-09T23:08:47.998Z,8.59
2022-10-09T23:11:15.771Z,8.23
2022-10-09T23:13:43.064Z,8.87
2022-10-09T23:16:11.502Z,8.80
2022-10-09T23:18:39.280Z,8.44
2022-10-09T23:21:08.588Z,8.29
2022-10-09T23:23:35.747Z,7.94
2022-10-09T23:26:11.156Z,8.47
2022-10-09T23:28:38.677Z,8.52
2022-10-09T23:31:12.792Z,8.32
2022-10-09T23:33:41.813Z,8.31
2022-10-09T23:36:10.363Z,8.27
2022-10-09T23:38:37.253Z,8.29
2022-10-09T23:41:06.308Z,7.95
2022-10-09T23:43:35.484Z,8.12
2022-10-09T23:46:04.200Z,8.04
2022-10-09T23:48:31.368Z,8.20
2022-10-09T23:50:58.113Z,8.12
2022-10-09T23:53:26.063Z,7.44
2022-10-09T23:55:53.747Z,8.15
2022-10-09T23:58:21.219Z,8.04
